createdAt,value
2022-11-14T00:02:45.581Z,99995.53
2022-11-14T00:05:41.207Z,99995.53
2022-11-14T00:08:31.824Z,99990.03
2022-11-14T00:11:23.361Z,99990.66
2022-11-14T00:14:13.799Z,99981.72
2022-11-14T00:17:05.036Z,99985.63
2022-11-14T00:19:55.031Z,99975.16
2022-11-14T00:22:45.092Z,99975.16
2022-11-14T00:25:35.324Z,99961.13
2022-11-14T00:28:25.468Z,99971.72
2022-11-14T00:31:15.712Z,99961.97
2022-11-14T00:34:06.307Z,99956.63
2022-11-14T00:36:56.368Z,99959.34
2022-11-14T00:39:46.952Z,99946.13
2022-11-14T00:42:37.043Z,99950.75
2022-11-14T00:45:27.316Z,99951.59
2022-11-14T00:48:17.711Z,99949.13
2022-11-14T00:51:08.098Z,99946.50
2022-11-14T00:53:58.159Z,99943.75
2022-11-14T00:56:47.979Z,99940.06
2022-11-14T00:59:37.856Z,99948.75
2022-11-14T01:02:28.072Z,99944.09
2022-11-14T01:05:18.398Z,99947.44
2022-11-14T01:08:08.430Z,99944.72
2022-11-14T01:11:00.392Z,99943.03
2022-11-14T01:13:50.636Z,99937.19
2022-11-14T01:16:41.017Z,99936.13
2022-11-14T01:19:31.326Z,99930.63
2022-11-14T01:22:21.371Z,99927.78
2022-11-14T01:25:11.497Z,99917.44
2022-11-14T01:28:02.111Z,99917.44
2022-11-14T01:30:52.336Z,99916.47
2022-11-14T01:33:42.931Z,99906.72
2022-11-14T01:36:33.188Z,99892.78
2022-11-14T01:39:23.238Z,99887.09
2022-11-14T01:42:13.535Z,99887.91
2022-11-14T01:46:01.502Z,99884.22
2022-11-14T01:48:56.856Z,99885.63
2022-11-14T01:51:50.207Z,99876.94
2022-11-14T01:54:45.832Z,99882.31
2022-11-14T01:57:40.708Z,99883.16
2022-11-14T02:00:30.607Z,99882.31
2022-11-14T02:03:21.315Z,99882.44
2022-11-14T02:06:17.138Z,99878.88
2022-11-14T02:09:07.937Z,99880.38
2022-11-14T02:12:07.941Z,99885.78
2022-11-14T02:14:59.377Z,99884.00
2022-11-14T02:17:49.512Z,99886.84
2022-11-14T02:20:43.283Z,99880.75
2022-11-14T02:23:33.636Z,99879.09
2022-11-14T02:26:23.876Z,99872.34
2022-11-14T02:29:14.055Z,99869.56
2022-11-14T02:32:09.477Z,99853.75
2022-11-14T02:35:00.719Z,99858.88
2022-11-14T02:37:51.000Z,99860.41
2022-11-14T02:40:41.266Z,99861.59
2022-11-14T02:43:31.522Z,99853.75
2022-11-14T02:46:21.489Z,99850.44
2022-11-14T02:49:11.648Z,99845.19
2022-11-14T02:52:01.899Z,99842.56
2022-11-14T02:54:54.589Z,99843.38
2022-11-14T02:57:45.274Z,99832.09
2022-11-14T03:00:38.600Z,99833.06
2022-11-14T03:03:38.377Z,99831.38
2022-11-14T03:06:28.294Z,99835.06
2022-11-14T03:09:18.298Z,99830.66
2022-11-14T03:12:09.023Z,99827.09
2022-11-14T03:15:00.450Z,99816.16
2022-11-14T03:17:51.599Z,99811.03
2022-11-14T03:20:41.729Z,99801.50
2022-11-14T03:23:32.338Z,99810.69
2022-11-14T03:26:22.371Z,99802.84
2022-11-14T03:29:12.447Z,99797.16
2022-11-14T03:32:02.299Z,99808.94
2022-11-14T03:34:52.137Z,99800.34
2022-11-14T03:37:42.162Z,99803.34
2022-11-14T03:40:32.414Z,99798.38
2022-11-14T03:43:22.671Z,99800.53
2022-11-14T03:46:12.992Z,99799.09
2022-11-14T03:49:05.375Z,99800.03
2022-11-14T03:51:55.598Z,99801.22
2022-11-14T03:54:48.548Z,99793.88
2022-11-14T03:57:38.746Z,99800.19
2022-11-14T04:00:28.926Z,99805.91
2022-11-14T04:03:19.052Z,99802.69
2022-11-14T04:06:09.045Z,99803.03
2022-11-14T04:08:59.987Z,99792.94
2022-11-14T04:11:50.016Z,99803.63
2022-11-14T04:14:40.159Z,99796.13
2022-11-14T04:17:31.869Z,99794.63
2022-11-14T04:20:24.756Z,99787.94
2022-11-14T04:23:15.204Z,99790.78
2022-11-14T04:26:05.337Z,99791.38
2022-11-14T04:28:56.697Z,99784.84
2022-11-14T04:31:46.830Z,99787.66
2022-11-14T04:34:36.806Z,99783.88
2022-11-14T04:37:27.400Z,99795.63
2022-11-14T04:40:17.397Z,99779.34
2022-11-14T04:43:07.587Z,99775.41
2022-11-14T04:45:57.606Z,99768.50
2022-11-14T04:48:47.818Z,99772.91
2022-11-14T04:51:37.967Z,99762.69
2022-11-14T04:54:28.187Z,99788.09
2022-11-14T04:57:18.555Z,99781.34
2022-11-14T05:00:09.315Z,99769.34
2022-11-14T05:03:00.267Z,99776.59
2022-11-14T05:05:50.683Z,99769.09
2022-11-14T05:08:40.572Z,99772.75
2022-11-14T05:11:30.670Z,99774.53
2022-11-14T05:14:20.826Z,99772.88
2022-11-14T05:17:10.971Z,99774.78
2022-11-14T05:20:00.902Z,99766.94
2022-11-14T05:22:56.276Z,99775.94
2022-11-14T05:25:48.263Z,99773.56
2022-11-14T05:28:38.148Z,99771.06
2022-11-14T05:31:28.274Z,99766.06
2022-11-14T05:34:18.578Z,99753.22
2022-11-14T05:37:09.225Z,99758.81
2022-11-14T05:39:59.609Z,99764.03
2022-11-14T05:42:49.770Z,99769.25
2022-11-14T05:45:40.000Z,99768.63
2022-11-14T05:48:30.850Z,99769.47
2022-11-14T05:51:21.218Z,99771.31
2022-11-14T05:54:11.478Z,99785.66
2022-11-14T05:57:01.554Z,99797.03
2022-11-14T05:59:51.629Z,99808.75
2022-11-14T06:02:41.809Z,99801.78
2022-11-14T06:05:35.276Z,99815.63
2022-11-14T06:08:25.293Z,99816.47
2022-11-14T06:11:20.819Z,99814.69
2022-11-14T06:14:11.320Z,99811.13
2022-11-14T06:17:01.532Z,99823.91
2022-11-14T06:19:51.654Z,99827.75
2022-11-14T06:22:42.561Z,99830.78
2022-11-14T06:25:32.654Z,99830.94
2022-11-14T06:28:25.730Z,99829.13
2022-11-14T06:31:16.703Z,99836.41
2022-11-14T06:34:07.051Z,99817.91
2022-11-14T06:36:57.312Z,99824.97
2022-11-14T06:39:47.360Z,99823.31
2022-11-14T06:42:37.544Z,99809.88
2022-11-14T06:45:27.343Z,99814.09
2022-11-14T06:48:17.464Z,99809.66
2022-11-14T06:51:08.174Z,99812.09
2022-11-14T06:53:58.255Z,99819.75
2022-11-14T06:56:48.556Z,99816.28
2022-11-14T06:59:38.898Z,99830.78
2022-11-14T07:02:29.204Z,99813.56
2022-11-14T07:05:19.507Z,99810.47
2022-11-14T07:08:16.006Z,99804.31
2022-11-14T07:11:22.710Z,99805.53
2022-11-14T07:14:13.361Z,99802.59
2022-11-14T07:17:03.777Z,99788.88
2022-11-14T07:19:54.074Z,99796.13
2022-11-14T07:22:46.621Z,99781.81
2022-11-14T07:25:36.558Z,99784.91
2022-11-14T07:28:28.215Z,99782.56
2022-11-14T07:31:20.030Z,99785.66
2022-11-14T07:34:11.227Z,99785.16
2022-11-14T07:37:01.488Z,99783.41
2022-11-14T07:39:51.596Z,99789.97
2022-11-14T07:42:41.840Z,99790.47
2022-11-14T07:45:32.229Z,99785.88
2022-11-14T07:48:23.562Z,99785.16
2022-11-14T07:51:19.613Z,99765.09
2022-11-14T07:54:11.867Z,99754.56
2022-11-14T07:57:02.764Z,99770.03
2022-11-14T07:59:53.028Z,99762.75
2022-11-14T08:02:43.304Z,99756.31
2022-11-14T08:05:33.544Z,99750.38
2022-11-14T08:08:23.892Z,99746.41
2022-11-14T08:11:23.020Z,99748.38
2022-11-14T08:14:24.409Z,99749.13
2022-11-14T08:17:14.972Z,99743.75
2022-11-14T08:20:10.000Z,99742.81
2022-11-14T08:23:07.290Z,99745.19
2022-11-14T08:25:59.059Z,99733.00
2022-11-14T08:28:53.012Z,99731.47
2022-11-14T08:31:43.062Z,99728.88
2022-11-14T08:34:33.347Z,99726.06
2022-11-14T08:37:25.454Z,99721.13
2022-11-14T08:40:15.996Z,99720.84
2022-11-14T08:43:06.150Z,99711.72
2022-11-14T08:46:02.216Z,99708.88
2022-11-14T08:48:54.828Z,99714.75
2022-11-14T08:51:45.257Z,99719.88
2022-11-14T08:54:35.414Z,99708.03
2022-11-14T08:57:25.655Z,99719.72
2022-11-14T09:00:16.376Z,99716.53
2022-11-14T09:03:16.232Z,99714.94
2022-11-14T09:06:09.424Z,99708.22
2022-11-14T09:09:02.644Z,99699.88
2022-11-14T09:11:52.922Z,99713.50
2022-11-14T09:14:43.189Z,99691.84
2022-11-14T09:17:33.417Z,99699.31
2022-11-14T09:20:31.077Z,99690.16
2022-11-14T09:23:22.457Z,99692.78
2022-11-14T09:26:12.737Z,99686.59
2022-11-14T09:29:03.195Z,99687.06
2022-11-14T09:31:56.817Z,99693.47
2022-11-14T09:34:48.082Z,99695.59
2022-11-14T09:37:39.086Z,99685.69
2022-11-14T09:40:40.620Z,99689.72
2022-11-14T09:43:52.766Z,99686.91
2022-11-14T09:46:45.168Z,99683.53
2022-11-14T09:49:36.951Z,99683.59
2022-11-14T09:52:35.482Z,99680.44
2022-11-14T09:55:37.104Z,99687.94
2022-11-14T09:58:28.007Z,99690.16
2022-11-14T10:01:43.052Z,99677.34
2022-11-14T10:05:05.904Z,99685.84
2022-11-14T10:08:07.095Z,99687.94
2022-11-14T10:11:31.436Z,99676.66
2022-11-14T10:14:52.442Z,99669.38
2022-11-14T10:17:51.559Z,99660.16
2022-11-14T10:21:00.447Z,99665.53
2022-11-14T10:24:22.816Z,99666.97
2022-11-14T10:27:25.502Z,99668.63
2022-11-14T10:30:20.005Z,99658.06
2022-11-14T10:33:25.385Z,99651.06
2022-11-14T10:36:43.285Z,99647.03
2022-11-14T10:39:53.040Z,99641.75
2022-11-14T10:42:48.638Z,99634.97
2022-11-14T10:45:49.704Z,99638.28
2022-11-14T10:48:43.872Z,99632.03
2022-11-14T10:51:42.417Z,99633.44
2022-11-14T10:54:51.112Z,99637.34
2022-11-14T10:57:42.099Z,99637.63
2022-11-14T11:00:32.122Z,99626.66
2022-11-14T11:03:41.872Z,99628.28
2022-11-14T11:06:32.017Z,99631.13
2022-11-14T11:09:46.781Z,99629.31
2022-11-14T11:12:36.842Z,99630.22
2022-11-14T11:15:32.643Z,99618.75
2022-11-14T11:18:36.674Z,99608.59
2022-11-14T11:21:51.479Z,99612.78
2022-11-14T11:24:41.609Z,99603.41
2022-11-14T11:27:31.858Z,99622.09
2022-11-14T11:30:26.080Z,99610.41
2022-11-14T11:33:21.841Z,99608.25
2022-11-14T11:36:16.946Z,99612.38
2022-11-14T11:39:19.793Z,99600.50
2022-11-14T11:42:17.485Z,99601.84
2022-11-14T11:45:17.396Z,99591.41
2022-11-14T11:48:20.303Z,99595.75
2022-11-14T11:51:18.320Z,99581.72
2022-11-14T11:54:26.526Z,99581.94
2022-11-14T11:57:21.949Z,99580.31
2022-11-14T12:00:18.595Z,99578.84
2022-11-14T12:03:20.334Z,99585.19
2022-11-14T12:06:28.595Z,99582.75
2022-11-14T12:09:48.654Z,99582.34
2022-11-14T12:12:43.344Z,99584.81
2022-11-14T12:15:51.378Z,99582.53
2022-11-14T12:19:16.939Z,99584.81
2022-11-14T12:22:35.495Z,99585.34
2022-11-14T12:25:58.067Z,99586.63
2022-11-14T12:29:30.909Z,99590.50
2022-11-14T12:32:52.084Z,99595.34
2022-11-14T12:35:54.821Z,99584.97
2022-11-14T12:38:52.609Z,99582.31
2022-11-14T12:41:42.695Z,99572.97
2022-11-14T12:44:38.121Z,99573.72
2022-11-14T12:47:28.769Z,99579.94
2022-11-14T12:50:40.872Z,99574.78
2022-11-14T12:53:38.146Z,99577.38
2022-11-14T12:56:31.399Z,99567.28
2022-11-14T12:59:37.233Z,99568.22
2022-11-14T13:02:41.107Z,99560.72
2022-11-14T13:05:52.767Z,99555.91
2022-11-14T13:09:01.385Z,99559.66
2022-11-14T13:12:10.562Z,99555.50
2022-11-14T13:15:47.444Z,99545.19
2022-11-14T13:19:33.529Z,99554.78
2022-11-14T13:22:47.135Z,99564.66
2022-11-14T13:25:37.529Z,99564.47
2022-11-14T13:28:37.024Z,99564.28
2022-11-14T13:31:35.843Z,99559.53
2022-11-14T13:34:33.560Z,99555.53
2022-11-14T13:37:29.701Z,99551.06
2022-11-14T13:40:48.926Z,99545.88
2022-11-14T13:43:49.293Z,99551.28
2022-11-14T13:47:00.458Z,99548.63
2022-11-14T13:50:13.408Z,99539.84
2022-11-14T13:53:14.655Z,99537.03
2022-11-14T13:56:04.676Z,99537.28
2022-11-14T13:59:15.527Z,99536.19
2022-11-14T14:02:11.627Z,99536.25
2022-11-14T14:05:04.396Z,99530.84
2022-11-14T14:08:12.575Z,99529.59
2022-11-14T14:11:32.826Z,99527.22
2022-11-14T14:14:53.849Z,99522.28
2022-11-14T14:17:59.788Z,99523.19
2022-11-14T14:21:05.941Z,99532.91
2022-11-14T14:24:05.026Z,99532.44
2022-11-14T14:27:13.183Z,99539.78
2022-11-14T14:30:12.379Z,99541.63
2022-11-14T14:33:03.608Z,99526.25
2022-11-14T14:35:54.155Z,99536.38
2022-11-14T14:38:45.076Z,99530.63
2022-11-14T14:41:35.588Z,99525.84
2022-11-14T14:44:33.483Z,99529.38
2022-11-14T14:47:32.571Z,99527.88
2022-11-14T14:50:26.907Z,99529.88
2022-11-14T14:53:34.699Z,99533.56
2022-11-14T14:56:26.174Z,99525.94
2022-11-14T14:59:18.833Z,99538.53
2022-11-14T15:02:16.703Z,99529.28
2022-11-14T15:05:07.513Z,99526.19
2022-11-14T15:08:00.619Z,99527.00
2022-11-14T15:10:53.012Z,99526.88
2022-11-14T15:13:43.805Z,99529.25
2022-11-14T15:16:34.206Z,99526.16
2022-11-14T15:19:27.552Z,99524.38
2022-11-14T15:22:25.039Z,99518.06
2022-11-14T15:25:14.990Z,99523.25
2022-11-14T15:28:19.329Z,99525.56
2022-11-14T15:31:19.089Z,99528.09
2022-11-14T15:34:32.168Z,99526.91
2022-11-14T15:37:23.177Z,99524.16
2022-11-14T15:40:21.751Z,99524.63
2022-11-14T15:43:38.122Z,99527.47
2022-11-14T15:46:35.578Z,99529.28
2022-11-14T15:49:27.461Z,99527.00
2022-11-14T15:52:22.976Z,99515.44
2022-11-14T15:55:19.262Z,99520.09
2022-11-14T15:58:27.645Z,99524.06
2022-11-14T16:01:28.286Z,99528.03
2022-11-14T16:04:20.697Z,99531.97
2022-11-14T16:07:12.982Z,99536.94
2022-11-14T16:10:03.364Z,99537.44
2022-11-14T16:12:54.137Z,99545.19
2022-11-14T16:15:44.357Z,99546.31
2022-11-14T16:18:34.728Z,99546.81
2022-11-14T16:21:24.986Z,99542.03
2022-11-14T16:24:21.026Z,99543.16
2022-11-14T16:27:11.627Z,99540.72
2022-11-14T16:30:01.764Z,99548.63
2022-11-14T16:32:52.397Z,99541.03
2022-11-14T16:35:42.766Z,99545.63
2022-11-14T16:38:33.184Z,99540.66
2022-11-14T16:41:23.643Z,99545.94
2022-11-14T16:44:16.747Z,99548.78
2022-11-14T16:47:07.026Z,99542.94
2022-11-14T16:49:57.471Z,99542.41
2022-11-14T16:52:47.999Z,99542.06
2022-11-14T16:55:38.307Z,99541.72
2022-11-14T16:58:28.546Z,99556.06
2022-11-14T17:01:21.403Z,99556.38
2022-11-14T17:04:11.681Z,99558.34
2022-11-14T17:07:02.129Z,99558.69
2022-11-14T17:09:52.545Z,99552.09
2022-11-14T17:12:43.260Z,99553.88
2022-11-14T17:15:33.358Z,99557.50
2022-11-14T17:18:23.847Z,99556.97
2022-11-14T17:21:15.505Z,99567.19
2022-11-14T17:24:05.951Z,99557.25
2022-11-14T17:26:56.130Z,99556.75
2022-11-14T17:29:47.093Z,99552.28
2022-11-14T17:32:37.424Z,99548.44
2022-11-14T17:35:27.671Z,99551.56
2022-11-14T17:38:17.929Z,99556.78
2022-11-14T17:41:08.239Z,99551.97
2022-11-14T17:44:01.947Z,99552.75
2022-11-14T17:46:53.684Z,99559.31
2022-11-14T17:49:43.671Z,99563.56
2022-11-14T17:52:34.080Z,99565.00
2022-11-14T17:55:24.329Z,99565.94
2022-11-14T17:58:15.079Z,99568.84
2022-11-14T18:01:13.423Z,99571.44
2022-11-14T18:04:06.316Z,99561.34
2022-11-14T18:06:56.881Z,99567.63
2022-11-14T18:09:47.240Z,99565.78
2022-11-14T18:12:37.661Z,99565.97
2022-11-14T18:15:28.469Z,99564.16
2022-11-14T18:18:20.262Z,99559.72
2022-11-14T18:21:14.526Z,99565.25
2022-11-14T18:24:11.695Z,99560.41
2022-11-14T18:27:01.751Z,99556.94
2022-11-14T18:29:53.114Z,99558.91
2022-11-14T18:32:43.443Z,99559.88
2022-11-14T18:35:33.718Z,99556.22
2022-11-14T18:38:25.416Z,99561.94
2022-11-14T18:41:21.230Z,99565.41
2022-11-14T18:44:14.548Z,99560.38
2022-11-14T18:47:04.946Z,99566.72
2022-11-14T18:49:55.190Z,99564.00
2022-11-14T18:52:45.380Z,99560.34
2022-11-14T18:55:43.213Z,99564.22
2022-11-14T18:58:33.650Z,99562.78
2022-11-14T19:01:29.602Z,99570.47
2022-11-14T19:04:20.216Z,99563.56
2022-11-14T19:07:10.734Z,99565.31
2022-11-14T19:10:00.861Z,99563.41
2022-11-14T19:12:51.115Z,99572.59
2022-11-14T19:15:42.622Z,99559.19
2022-11-14T19:18:33.070Z,99566.00
2022-11-14T19:21:23.782Z,99560.50
2022-11-14T19:24:14.074Z,99569.28
2022-11-14T19:27:04.258Z,99564.44
2022-11-14T19:29:54.689Z,99565.44
2022-11-14T19:32:45.089Z,99569.47
2022-11-14T19:35:38.963Z,99568.50
2022-11-14T19:38:32.661Z,99570.75
2022-11-14T19:41:26.696Z,99565.22
2022-11-14T19:44:16.723Z,99568.00
2022-11-14T19:47:06.972Z,99566.50
2022-11-14T19:49:57.683Z,99561.81
2022-11-14T19:52:47.872Z,99562.22
2022-11-14T19:55:38.338Z,99571.25
2022-11-14T19:58:29.042Z,99570.53
2022-11-14T20:01:24.820Z,99571.81
2022-11-14T20:04:15.655Z,99564.88
2022-11-14T20:07:05.970Z,99561.56
2022-11-14T20:09:56.147Z,99561.72
2022-11-14T20:12:46.408Z,99566.28
2022-11-14T20:15:36.546Z,99558.53
2022-11-14T20:18:31.830Z,99554.28
2022-11-14T20:21:25.644Z,99553.59
2022-11-14T20:24:21.392Z,99555.66
2022-11-14T20:27:11.430Z,99546.28
2022-11-14T20:30:02.760Z,99553.31
2022-11-14T20:32:52.968Z,99545.56
2022-11-14T20:35:43.552Z,99543.91
2022-11-14T20:38:33.816Z,99538.13
2022-11-14T20:41:25.213Z,99536.19
2022-11-14T20:44:21.394Z,99542.84
2022-11-14T20:47:11.739Z,99529.31
2022-11-14T20:50:08.201Z,99536.06
2022-11-14T20:52:58.196Z,99537.19
2022-11-14T20:55:53.808Z,99528.63
2022-11-14T20:58:44.710Z,99545.06
2022-11-14T21:01:39.106Z,99540.94
2022-11-14T21:04:35.007Z,99551.84
2022-11-14T21:07:28.218Z,99545.50
2022-11-14T21:10:40.061Z,99533.59
2022-11-14T21:13:49.550Z,99538.03
2022-11-14T21:16:40.536Z,99541.47
2022-11-14T21:19:30.870Z,99526.97
2022-11-14T21:22:23.481Z,99521.31
2022-11-14T21:25:13.584Z,99516.63
2022-11-14T21:28:03.803Z,99526.53
2022-11-14T21:30:54.153Z,99517.00
2022-11-14T21:33:45.158Z,99520.63
2022-11-14T21:36:45.082Z,99521.16
2022-11-14T21:39:36.510Z,99521.16
2022-11-14T21:42:26.834Z,99524.88
2022-11-14T21:45:17.181Z,99515.38
2022-11-14T21:48:07.322Z,99514.69
2022-11-14T21:51:11.106Z,99521.16
2022-11-14T21:54:02.821Z,99516.19
2022-11-14T21:56:53.201Z,99513.97
2022-11-14T21:59:46.453Z,99503.91
2022-11-14T22:02:55.733Z,99508.44
2022-11-14T22:05:45.985Z,99498.25
2022-11-14T22:08:36.123Z,99505.28
2022-11-14T22:11:29.391Z,99491.00
2022-11-14T22:14:19.391Z,99495.00
2022-11-14T22:17:09.696Z,99497.63
2022-11-14T22:20:00.153Z,99500.66
2022-11-14T22:22:54.690Z,99500.91
2022-11-14T22:25:52.904Z,99496.78
2022-11-14T22:28:43.240Z,99503.09
2022-11-14T22:31:33.594Z,99502.00
2022-11-14T22:34:23.881Z,99506.69
2022-11-14T22:37:14.183Z,99512.63
2022-11-14T22:40:04.966Z,99507.25
2022-11-14T22:42:55.398Z,99510.13
2022-11-14T22:45:51.252Z,99499.78
2022-11-14T22:48:44.447Z,99504.19
2022-11-14T22:51:36.452Z,99502.56
2022-11-14T22:54:26.469Z,99494.81
2022-11-14T22:57:16.737Z,99502.09
2022-11-14T23:00:08.847Z,99503.44
2022-11-14T23:03:00.607Z,99501.00
2022-11-14T23:05:50.737Z,99501.94
2022-11-14T23:08:41.945Z,99509.09
2022-11-14T23:11:33.092Z,99504.25
2022-11-14T23:14:24.163Z,99499.03
2022-11-14T23:17:14.449Z,99495.03
2022-11-14T23:20:05.244Z,99491.69
2022-11-14T23:22:55.750Z,99492.78
2022-11-14T23:25:45.772Z,99485.06
2022-11-14T23:28:36.342Z,99486.28
2022-11-14T23:31:29.844Z,99487.38
2022-11-14T23:34:23.073Z,99482.41
2022-11-14T23:37:13.067Z,99485.41
2022-11-14T23:40:03.459Z,99485.69
2022-11-14T23:42:53.549Z,99483.44
2022-11-14T23:45:43.779Z,99481.09
2022-11-14T23:48:34.044Z,99470.75
2022-11-14T23:51:24.473Z,99472.53
2022-11-14T23:54:14.551Z,99472.53
2022-11-14T23:57:04.931Z,99470.19
2022-11-14T23:59:54.944Z,99469.59
